createdAt,value
2023-04-15T00:01:08.818Z,101039.47
2023-04-15T00:03:36.478Z,101055.19
2023-04-15T00:06:04.012Z,101047.88
2023-04-15T00:08:32.290Z,101050.63
2023-04-15T00:11:05.815Z,101057.66
2023-04-15T00:13:34.305Z,101050.56
2023-04-15T00:16:01.782Z,101070.97
2023-04-15T00:18:30.122Z,101066.41
2023-04-15T00:20:57.361Z,101075.44
2023-04-15T00:23:44.121Z,101074.00
2023-04-15T00:26:11.347Z,101066.47
2023-04-15T00:28:38.771Z,101077.13
2023-04-15T00:31:05.986Z,101072.91
2023-04-15T00:33:33.542Z,101077.16
2023-04-15T00:36:00.651Z,101092.53
2023-04-15T00:38:28.231Z,101088.47
2023-04-15T00:40:56.629Z,101084.69
2023-04-15T00:43:23.819Z,101090.44
2023-04-15T00:45:53.764Z,101098.34
2023-04-15T00:48:21.011Z,101097.81
2023-04-15T00:50:48.069Z,101102.41
2023-04-15T00:53:15.126Z,101101.63
2023-04-15T00:55:42.666Z,101107.16
2023-04-15T00:58:09.862Z,101110.81
2023-04-15T01:00:37.694Z,101117.63
2023-04-15T01:03:04.905Z,101118.16
2023-04-15T01:05:32.557Z,101115.47
2023-04-15T01:07:59.672Z,101128.88
2023-04-15T01:10:27.453Z,101128.09
2023-04-15T01:12:54.955Z,101130.22
2023-04-15T01:15:22.055Z,101132.63
2023-04-15T01:17:49.580Z,101132.50
2023-04-15T01:20:17.318Z,101131.13
2023-04-15T01:22:45.319Z,101137.63
2023-04-15T01:25:16.595Z,101137.25
2023-04-15T01:27:43.794Z,101137.97
2023-04-15T01:30:11.635Z,101132.56
2023-04-15T01:32:38.952Z,101143.03
2023-04-15T01:35:24.826Z,101146.41
2023-04-15T01:37:52.709Z,101149.16
2023-04-15T01:40:19.789Z,101149.22
2023-04-15T01:42:48.155Z,101154.69
2023-04-15T01:45:17.626Z,101149.06
2023-04-15T01:47:46.027Z,101157.19
2023-04-15T01:50:14.446Z,101155.13
2023-04-15T01:52:43.526Z,101149.78
2023-04-15T01:55:12.638Z,101156.53
2023-04-15T01:57:41.263Z,101159.25
2023-04-15T02:00:10.050Z,101147.78
2023-04-15T02:02:44.960Z,101158.81
2023-04-15T02:05:13.470Z,101171.75
2023-04-15T02:07:43.640Z,101179.59
2023-04-15T02:10:13.675Z,101173.16
2023-04-15T02:12:42.265Z,101187.47
2023-04-15T02:15:11.036Z,101185.50
2023-04-15T02:17:39.463Z,101180.47
2023-04-15T02:20:10.808Z,101185.09
2023-04-15T02:22:39.305Z,101188.09
2023-04-15T02:25:09.510Z,101192.75
2023-04-15T02:27:38.484Z,101199.28
2023-04-15T02:30:09.372Z,101199.16
2023-04-15T02:32:38.425Z,101206.72
2023-04-15T02:35:08.932Z,101199.00
2023-04-15T02:37:43.579Z,101199.09
2023-04-15T02:40:13.538Z,101206.47
2023-04-15T02:42:43.039Z,101207.28
2023-04-15T02:45:14.288Z,101223.47
2023-04-15T02:47:44.588Z,101224.44
2023-04-15T02:50:14.157Z,101229.22
2023-04-15T02:52:44.739Z,101233.75
2023-04-15T02:55:13.425Z,101234.56
2023-04-15T02:57:42.049Z,101232.66
2023-04-15T03:00:12.660Z,101235.16
2023-04-15T03:02:44.813Z,101226.97
2023-04-15T03:05:14.639Z,101238.66
2023-04-15T03:07:52.088Z,101239.06
2023-04-15T03:10:21.527Z,101244.16
2023-04-15T03:12:50.100Z,101247.19
2023-04-15T03:15:21.384Z,101253.22
2023-04-15T03:17:53.351Z,101250.16
2023-04-15T03:20:21.884Z,101260.25
2023-04-15T03:22:50.662Z,101257.03
2023-04-15T03:25:21.149Z,101256.63
2023-04-15T03:27:49.518Z,101256.97
2023-04-15T03:30:18.737Z,101259.41
2023-04-15T03:32:47.715Z,101260.81
2023-04-15T03:35:16.606Z,101266.34
2023-04-15T03:37:45.032Z,101264.94
2023-04-15T03:40:13.444Z,101271.91
2023-04-15T03:42:41.815Z,101263.94
2023-04-15T03:45:10.969Z,101272.13
2023-04-15T03:47:39.350Z,101285.84
2023-04-15T03:50:08.474Z,101277.03
2023-04-15T03:52:36.874Z,101280.28
2023-04-15T03:55:05.626Z,101283.78
2023-04-15T03:57:38.158Z,101285.69
2023-04-15T04:00:07.847Z,101286.75
2023-04-15T04:02:40.410Z,101263.03
2023-04-15T04:05:09.449Z,101271.53
2023-04-15T04:07:37.850Z,101287.56
2023-04-15T04:10:06.974Z,101284.16
2023-04-15T04:12:35.396Z,101285.72
2023-04-15T04:15:04.147Z,101292.94
2023-04-15T04:17:32.892Z,101290.69
2023-04-15T04:20:01.320Z,101294.13
2023-04-15T04:22:29.725Z,101290.56
2023-04-15T04:24:59.556Z,101302.88
2023-04-15T04:27:27.902Z,101292.38
2023-04-15T04:29:56.506Z,101290.50
2023-04-15T04:32:25.009Z,101296.16
2023-04-15T04:34:53.430Z,101306.66
2023-04-15T04:37:21.850Z,101297.38
2023-04-15T04:39:50.366Z,101305.25
2023-04-15T04:42:18.770Z,101299.34
2023-04-15T04:44:47.327Z,101304.81
2023-04-15T04:47:15.746Z,101290.75
2023-04-15T04:49:44.174Z,101299.13
2023-04-15T04:52:13.070Z,101309.09
2023-04-15T04:54:41.713Z,101295.59
2023-04-15T04:57:10.075Z,101307.28
2023-04-15T04:59:38.388Z,101296.41
2023-04-15T05:02:07.442Z,101309.25
2023-04-15T05:04:37.117Z,101309.63
2023-04-15T05:07:05.451Z,101317.69
2023-04-15T05:09:36.216Z,101309.25
2023-04-15T05:12:05.099Z,101298.25
2023-04-15T05:14:33.481Z,101315.56
2023-04-15T05:17:01.850Z,101309.09
2023-04-15T05:19:30.494Z,101314.88
2023-04-15T05:21:58.843Z,101325.03
2023-04-15T05:24:27.441Z,101315.84
2023-04-15T05:26:56.897Z,101324.44
2023-04-15T05:29:25.232Z,101311.03
2023-04-15T05:31:53.551Z,101318.22
2023-04-15T05:34:21.859Z,101320.75
2023-04-15T05:36:50.606Z,101327.97
2023-04-15T05:39:19.018Z,101329.50
2023-04-15T05:41:47.387Z,101334.38
2023-04-15T05:44:15.779Z,101315.19
2023-04-15T05:46:44.193Z,101333.50
2023-04-15T05:49:12.592Z,101332.34
2023-04-15T05:51:41.535Z,101325.06
2023-04-15T05:54:09.968Z,101320.44
2023-04-15T05:56:38.298Z,101334.91
2023-04-15T05:59:06.780Z,101335.47
2023-04-15T06:01:35.665Z,101333.81
2023-04-15T06:04:04.153Z,101347.22
2023-04-15T06:06:32.781Z,101330.97
2023-04-15T06:09:01.325Z,101349.00
2023-04-15T06:11:29.901Z,101349.06
2023-04-15T06:13:58.218Z,101351.03
2023-04-15T06:16:27.444Z,101344.34
2023-04-15T06:18:55.903Z,101358.34
2023-04-15T06:21:24.354Z,101353.41
2023-04-15T06:23:53.427Z,101356.75
2023-04-15T06:26:22.132Z,101338.84
2023-04-15T06:28:50.700Z,101342.50
2023-04-15T06:31:19.147Z,101352.63
2023-04-15T06:33:47.628Z,101354.72
2023-04-15T06:36:15.987Z,101344.50
2023-04-15T06:38:44.349Z,101349.75
2023-04-15T06:41:12.915Z,101348.34
2023-04-15T06:43:41.337Z,101343.66
2023-04-15T06:46:09.730Z,101335.75
2023-04-15T06:48:38.209Z,101354.56
2023-04-15T06:51:06.727Z,101362.00
2023-04-15T06:53:35.738Z,101364.53
2023-04-15T06:56:04.193Z,101355.97
2023-04-15T06:58:32.542Z,101355.81
2023-04-15T07:01:01.305Z,101360.00
2023-04-15T07:03:31.443Z,101355.66
2023-04-15T07:06:01.853Z,101346.50
2023-04-15T07:08:30.652Z,101351.34
2023-04-15T07:10:59.059Z,101346.28
2023-04-15T07:13:27.748Z,101347.72
2023-04-15T07:15:56.177Z,101348.06
2023-04-15T07:18:24.578Z,101342.16
2023-04-15T07:20:52.998Z,101355.09
2023-04-15T07:23:21.346Z,101354.88
2023-04-15T07:25:49.682Z,101335.75
2023-04-15T07:28:18.399Z,101336.06
2023-04-15T07:30:46.815Z,101342.31
2023-04-15T07:33:17.952Z,101339.34
2023-04-15T07:35:46.910Z,101319.34
2023-04-15T07:38:15.240Z,101344.16
2023-04-15T07:40:43.771Z,101338.72
2023-04-15T07:43:13.582Z,101330.25
2023-04-15T07:45:41.980Z,101339.06
2023-04-15T07:48:10.322Z,101331.09
2023-04-15T07:50:38.753Z,101344.66
2023-04-15T07:53:07.633Z,101328.28
2023-04-15T07:55:36.066Z,101323.81
2023-04-15T07:58:04.568Z,101327.91
2023-04-15T08:00:32.882Z,101327.50
2023-04-15T08:03:01.482Z,101336.28
2023-04-15T08:05:30.409Z,101315.97
2023-04-15T08:07:58.858Z,101315.81
2023-04-15T08:10:27.499Z,101341.19
2023-04-15T08:12:56.878Z,101328.47
2023-04-15T08:15:26.758Z,101339.16
2023-04-15T08:17:55.165Z,101340.31
2023-04-15T08:20:23.783Z,101327.38
2023-04-15T08:22:52.752Z,101334.03
2023-04-15T08:25:21.686Z,101329.81
2023-04-15T08:27:50.127Z,101326.00
2023-04-15T08:30:19.488Z,101335.44
2023-04-15T08:32:48.117Z,101303.50
2023-04-15T08:35:16.838Z,101329.97
2023-04-15T08:37:45.395Z,101326.78
2023-04-15T08:40:14.278Z,101323.34
2023-04-15T08:42:48.373Z,101316.97
2023-04-15T08:45:18.469Z,101326.84
2023-04-15T08:47:49.470Z,101321.59
2023-04-15T08:50:18.948Z,101331.59
2023-04-15T08:52:47.358Z,101325.75
2023-04-15T08:55:16.370Z,101318.31
2023-04-15T08:57:45.047Z,101310.75
2023-04-15T09:00:14.289Z,101316.69
2023-04-15T09:02:43.425Z,101310.38
2023-04-15T09:05:11.907Z,101314.66
2023-04-15T09:07:40.206Z,101302.84
2023-04-15T09:10:10.049Z,101319.13
2023-04-15T09:12:38.517Z,101280.19
2023-04-15T09:15:08.947Z,101295.38
2023-04-15T09:17:43.263Z,101283.69
2023-04-15T09:20:14.238Z,101291.31
2023-04-15T09:22:43.594Z,101301.94
2023-04-15T09:25:34.994Z,101309.28
2023-04-15T09:28:04.260Z,101303.00
2023-04-15T09:30:33.529Z,101289.56
2023-04-15T09:33:03.156Z,101307.97
2023-04-15T09:35:31.634Z,101306.59
2023-04-15T09:38:08.072Z,101298.81
2023-04-15T09:40:37.594Z,101300.69
2023-04-15T09:43:07.178Z,101298.78
2023-04-15T09:45:36.689Z,101293.13
2023-04-15T09:48:29.110Z,101306.53
2023-04-15T09:51:01.946Z,101305.00
2023-04-15T09:53:34.388Z,101281.56
2023-04-15T09:56:03.399Z,101299.44
2023-04-15T09:58:33.747Z,101289.97
2023-04-15T10:01:05.131Z,101298.06
2023-04-15T10:03:37.747Z,101295.97
2023-04-15T10:06:06.405Z,101288.38
2023-04-15T10:08:35.073Z,101271.56
2023-04-15T10:11:05.152Z,101279.53
2023-04-15T10:13:36.217Z,101248.34
2023-04-15T10:16:10.983Z,101290.72
2023-04-15T10:18:43.412Z,101285.59
2023-04-15T10:21:14.002Z,101284.75
2023-04-15T10:23:42.872Z,101274.53
2023-04-15T10:26:12.817Z,101286.28
2023-04-15T10:28:42.190Z,101267.66
2023-04-15T10:31:15.188Z,101282.56
2023-04-15T10:33:44.942Z,101274.66
2023-04-15T10:36:13.964Z,101256.44
2023-04-15T10:38:45.779Z,101287.66
2023-04-15T10:41:28.073Z,101281.59
2023-04-15T10:44:04.742Z,101263.69
2023-04-15T10:46:40.509Z,101276.63
2023-04-15T10:49:13.261Z,101274.75
2023-04-15T10:51:44.509Z,101274.81
2023-04-15T10:54:26.036Z,101272.72
2023-04-15T10:57:06.649Z,101255.84
2023-04-15T10:59:59.719Z,101282.47
2023-04-15T11:02:47.650Z,101283.38
2023-04-15T11:05:17.450Z,101280.16
2023-04-15T11:07:55.407Z,101276.59
2023-04-15T11:10:26.637Z,101273.22
2023-04-15T11:12:58.553Z,101273.22
2023-04-15T11:15:33.922Z,101265.38
2023-04-15T11:18:16.613Z,101265.59
2023-04-15T11:20:55.024Z,101270.34
2023-04-15T11:23:39.881Z,101273.53
2023-04-15T11:26:11.934Z,101267.28
2023-04-15T11:28:42.859Z,101253.16
2023-04-15T11:31:12.400Z,101264.75
2023-04-15T11:33:59.199Z,101259.94
2023-04-15T11:36:32.240Z,101251.16
2023-04-15T11:39:01.023Z,101251.59
2023-04-15T11:41:29.490Z,101244.75
2023-04-15T11:43:57.845Z,101249.25
2023-04-15T11:46:31.910Z,101232.78
2023-04-15T11:49:00.439Z,101253.41
2023-04-15T11:51:33.555Z,101245.38
2023-04-15T11:54:01.300Z,101220.38
2023-04-15T11:56:29.041Z,101227.56
2023-04-15T11:58:59.886Z,101228.22
2023-04-15T12:01:36.567Z,101236.28
2023-04-15T12:04:12.174Z,101223.00
2023-04-15T12:06:39.645Z,101229.09
2023-04-15T12:09:06.813Z,101232.06
2023-04-15T12:11:41.675Z,101221.97
2023-04-15T12:14:20.234Z,101226.34
2023-04-15T12:16:58.126Z,101216.88
2023-04-15T12:19:30.315Z,101209.81
2023-04-15T12:22:00.993Z,101208.63
2023-04-15T12:24:31.184Z,101205.97
2023-04-15T12:27:03.729Z,101207.19
2023-04-15T12:29:31.271Z,101208.06
2023-04-15T12:32:05.147Z,101201.63
2023-04-15T12:34:41.137Z,101212.78
2023-04-15T12:37:10.355Z,101216.88
2023-04-15T12:39:39.843Z,101219.78
2023-04-15T12:42:07.831Z,101219.34
2023-04-15T12:44:36.390Z,101212.56
2023-04-15T12:47:03.704Z,101224.38
2023-04-15T12:49:31.170Z,101216.66
2023-04-15T12:52:00.297Z,101222.91
2023-04-15T12:54:28.837Z,101212.69
2023-04-15T12:56:56.232Z,101196.97
2023-04-15T12:59:24.294Z,101215.91
2023-04-15T13:01:53.515Z,101191.09
2023-04-15T13:04:22.077Z,101211.19
2023-04-15T13:06:49.596Z,101210.03
2023-04-15T13:09:16.923Z,101192.56
2023-04-15T13:11:44.185Z,101206.06
2023-04-15T13:14:14.272Z,101211.19
2023-04-15T13:16:41.757Z,101207.09
2023-04-15T13:19:09.136Z,101212.00
2023-04-15T13:21:36.806Z,101203.31
2023-04-15T13:24:07.255Z,101211.59
2023-04-15T13:26:34.649Z,101214.91
2023-04-15T13:29:02.045Z,101208.09
2023-04-15T13:31:29.261Z,101198.91
2023-04-15T13:33:57.638Z,101199.72
2023-04-15T13:36:24.990Z,101209.38
2023-04-15T13:38:52.198Z,101206.28
2023-04-15T13:41:20.203Z,101209.31
2023-04-15T13:43:47.440Z,101208.34
2023-04-15T13:46:14.832Z,101197.31
2023-04-15T13:48:42.306Z,101205.00
2023-04-15T13:51:09.723Z,101206.53
2023-04-15T13:53:38.890Z,101214.28
2023-04-15T13:56:08.612Z,101206.28
2023-04-15T13:58:37.500Z,101210.03
2023-04-15T14:01:07.005Z,101209.00
2023-04-15T14:03:36.812Z,101202.34
2023-04-15T14:06:05.827Z,101197.06
2023-04-15T14:08:33.764Z,101208.16
2023-04-15T14:11:01.339Z,101187.47
2023-04-15T14:13:28.649Z,101190.31
2023-04-15T14:15:57.296Z,101190.34
2023-04-15T14:18:24.596Z,101198.75
2023-04-15T14:20:51.966Z,101203.06
2023-04-15T14:23:19.527Z,101210.06
2023-04-15T14:25:48.394Z,101198.22
2023-04-15T14:28:16.345Z,101207.06
2023-04-15T14:30:43.847Z,101191.69
2023-04-15T14:33:11.389Z,101204.44
2023-04-15T14:35:39.254Z,101211.88
2023-04-15T14:38:10.750Z,101202.34
2023-04-15T14:40:38.306Z,101190.63
2023-04-15T14:43:05.641Z,101199.59
2023-04-15T14:45:32.890Z,101201.09
2023-04-15T14:48:00.324Z,101180.72
2023-04-15T14:50:28.279Z,101191.75
2023-04-15T14:52:55.573Z,101186.50
2023-04-15T14:55:22.777Z,101187.47
2023-04-15T14:57:49.969Z,101190.31
2023-04-15T15:00:17.226Z,101181.47
2023-04-15T15:02:44.654Z,101177.56
2023-04-15T15:05:12.460Z,101169.59
2023-04-15T15:07:41.222Z,101184.41
2023-04-15T15:10:09.053Z,101191.03
2023-04-15T15:12:36.437Z,101188.31
2023-04-15T15:15:15.641Z,101184.97
2023-04-15T15:17:54.387Z,101185.97
2023-04-15T15:20:22.137Z,101187.25
2023-04-15T15:22:49.421Z,101185.78
2023-04-15T15:25:16.939Z,101189.09
2023-04-15T15:27:44.325Z,101181.22
2023-04-15T15:30:12.039Z,101168.31
2023-04-15T15:32:43.019Z,101185.88
2023-04-15T15:35:11.271Z,101181.50
2023-04-15T15:37:38.536Z,101179.69
2023-04-15T15:40:06.703Z,101189.91
2023-04-15T15:42:34.451Z,101188.19
2023-04-15T15:45:03.290Z,101185.97
2023-04-15T15:47:32.328Z,101187.78
2023-04-15T15:50:02.634Z,101188.97
2023-04-15T15:52:31.931Z,101191.22
2023-04-15T15:54:59.124Z,101190.06
2023-04-15T15:57:26.297Z,101184.50
2023-04-15T16:00:04.839Z,101168.72
2023-04-15T16:03:02.393Z,101191.69
2023-04-15T16:05:25.157Z,101193.00
2023-04-15T16:07:52.348Z,101195.28
2023-04-15T16:10:19.521Z,101190.38
2023-04-15T16:12:47.714Z,101194.47
2023-04-15T16:15:15.019Z,101185.81
2023-04-15T16:17:42.131Z,101186.31
2023-04-15T16:20:09.879Z,101194.66
2023-04-15T16:22:37.384Z,101194.97
2023-04-15T16:25:04.782Z,101197.81
2023-04-15T16:27:33.826Z,101195.91
2023-04-15T16:30:02.786Z,101195.41
2023-04-15T16:32:31.848Z,101188.75
2023-04-15T16:34:59.103Z,101194.25
2023-04-15T16:37:26.215Z,101196.53
2023-04-15T16:39:53.356Z,101182.63
2023-04-15T16:42:20.546Z,101200.97
2023-04-15T16:44:47.708Z,101188.75
2023-04-15T16:47:14.956Z,101193.50
2023-04-15T16:49:42.176Z,101199.88
2023-04-15T16:52:09.433Z,101201.31
2023-04-15T16:54:41.358Z,101202.41
2023-04-15T16:57:08.980Z,101204.78
2023-04-15T16:59:36.129Z,101204.44
2023-04-15T17:02:03.420Z,101205.28
2023-04-15T17:04:30.937Z,101196.28
2023-04-15T17:06:58.471Z,101219.63
2023-04-15T17:09:25.596Z,101199.88
2023-04-15T17:11:52.852Z,101206.00
2023-04-15T17:14:20.043Z,101201.22
2023-04-15T17:16:48.041Z,101211.50
2023-04-15T17:19:15.364Z,101210.78
2023-04-15T17:21:55.464Z,101213.16
2023-04-15T17:24:24.044Z,101214.59
2023-04-15T17:26:57.644Z,101220.34
2023-04-15T17:29:27.179Z,101217.00
2023-04-15T17:31:58.600Z,101223.69
2023-04-15T17:34:50.056Z,101211.44
2023-04-15T17:37:38.325Z,101227.97
2023-04-15T17:40:25.379Z,101228.44
2023-04-15T17:43:12.523Z,101218.72
2023-04-15T17:45:59.768Z,101227.25
2023-04-15T17:48:47.716Z,101229.25
2023-04-15T17:51:34.746Z,101230.66
2023-04-15T17:54:27.653Z,101222.16
2023-04-15T17:57:14.973Z,101236.78
2023-04-15T18:00:02.288Z,101239.69
2023-04-15T18:02:59.628Z,101245.66
2023-04-15T18:05:46.835Z,101242.09
2023-04-15T18:08:33.925Z,101221.59
2023-04-15T18:11:21.243Z,101229.38
2023-04-15T18:14:08.311Z,101237.19
2023-04-15T18:16:55.425Z,101241.41
2023-04-15T18:19:43.584Z,101234.56
2023-04-15T18:22:18.275Z,101242.63
2023-04-15T18:24:45.447Z,101245.34
2023-04-15T18:27:12.679Z,101239.03
2023-04-15T18:29:39.937Z,101242.53
2023-04-15T18:32:07.181Z,101231.69
2023-04-15T18:34:34.500Z,101248.28
2023-04-15T18:37:01.859Z,101238.50
2023-04-15T18:39:29.392Z,101223.13
2023-04-15T18:41:57.365Z,101242.00
2023-04-15T18:44:24.547Z,101248.28
2023-04-15T18:46:51.848Z,101232.72
2023-04-15T18:49:19.086Z,101241.81
2023-04-15T18:51:46.537Z,101240.41
2023-04-15T18:54:15.005Z,101250.50
2023-04-15T18:56:42.387Z,101243.28
2023-04-15T18:59:28.950Z,101249.31
2023-04-15T19:02:02.150Z,101251.69
2023-04-15T19:04:29.860Z,101253.81
2023-04-15T19:06:59.093Z,101261.59
2023-04-15T19:09:26.424Z,101235.13
2023-04-15T19:11:53.631Z,101264.31
2023-04-15T19:14:20.993Z,101264.66
2023-04-15T19:16:48.204Z,101256.53
2023-04-15T19:19:15.922Z,101261.16
2023-04-15T19:21:43.233Z,101267.22
2023-04-15T19:24:10.435Z,101257.25
2023-04-15T19:26:37.721Z,101269.19
2023-04-15T19:29:05.106Z,101261.69
2023-04-15T19:31:32.537Z,101274.19
2023-04-15T19:34:00.739Z,101266.56
2023-04-15T19:36:28.629Z,101261.88
2023-04-15T19:38:55.926Z,101281.59
2023-04-15T19:41:23.239Z,101278.88
2023-04-15T19:43:50.658Z,101281.81
2023-04-15T19:46:18.228Z,101289.56
2023-04-15T19:48:45.511Z,101276.75
2023-04-15T19:51:12.887Z,101278.41
2023-04-15T19:53:40.978Z,101289.97
2023-04-15T19:56:08.112Z,101291.06
2023-04-15T19:58:35.395Z,101293.66
2023-04-15T20:01:02.545Z,101269.59
2023-04-15T20:03:29.910Z,101288.09
2023-04-15T20:05:57.217Z,101290.84
2023-04-15T20:08:24.375Z,101291.47
2023-04-15T20:10:51.493Z,101291.66
2023-04-15T20:13:18.670Z,101298.59
2023-04-15T20:15:46.112Z,101307.44
2023-04-15T20:18:13.411Z,101307.94
2023-04-15T20:20:41.030Z,101312.69
2023-04-15T20:23:08.211Z,101311.84
2023-04-15T20:25:35.449Z,101314.97
2023-04-15T20:28:02.804Z,101307.19
2023-04-15T20:30:29.934Z,101307.44
2023-04-15T20:32:57.519Z,101320.38
2023-04-15T20:35:28.207Z,101322.53
2023-04-15T20:37:55.516Z,101321.63
2023-04-15T20:40:23.137Z,101309.72
2023-04-15T20:42:50.247Z,101323.81
2023-04-15T20:45:17.693Z,101316.03
2023-04-15T20:47:45.029Z,101324.84
2023-04-15T20:50:12.293Z,101326.94
2023-04-15T20:52:40.164Z,101329.88
2023-04-15T20:55:08.079Z,101324.44
2023-04-15T20:57:35.560Z,101313.41
2023-04-15T21:00:02.903Z,101330.31
2023-04-15T21:02:33.049Z,101329.19
2023-04-15T21:05:00.589Z,101319.19
2023-04-15T21:07:27.904Z,101331.81
2023-04-15T21:09:57.995Z,101329.16
2023-04-15T21:12:25.257Z,101336.63
2023-04-15T21:14:52.561Z,101316.84
2023-04-15T21:17:19.761Z,101339.38
2023-04-15T21:19:47.004Z,101327.06
2023-04-15T21:22:14.255Z,101332.72
2023-04-15T21:24:41.396Z,101346.66
2023-04-15T21:27:09.992Z,101336.19
2023-04-15T21:29:40.290Z,101331.53
2023-04-15T21:32:07.692Z,101335.50
2023-04-15T21:34:35.027Z,101332.41
2023-04-15T21:37:02.459Z,101334.50
2023-04-15T21:39:29.747Z,101332.50
2023-04-15T21:41:58.012Z,101344.78
2023-04-15T21:44:25.381Z,101345.84
2023-04-15T21:46:52.733Z,101347.44
2023-04-15T21:49:20.564Z,101325.91
2023-04-15T21:51:48.250Z,101331.78
2023-04-15T21:54:15.811Z,101355.81
2023-04-15T21:56:43.250Z,101360.75
2023-04-15T21:59:10.475Z,101359.50
2023-04-15T22:01:37.833Z,101352.28
2023-04-15T22:04:07.546Z,101365.97
2023-04-15T22:06:34.956Z,101345.78
2023-04-15T22:09:02.150Z,101361.03
2023-04-15T22:11:30.981Z,101361.72
2023-04-15T22:13:59.172Z,101356.78
2023-04-15T22:16:27.092Z,101363.56
2023-04-15T22:18:55.626Z,101362.53
2023-04-15T22:21:23.300Z,101366.34
2023-04-15T22:23:51.479Z,101377.72
2023-04-15T22:26:18.679Z,101368.47
2023-04-15T22:28:45.863Z,101372.69
2023-04-15T22:31:13.835Z,101377.34
2023-04-15T22:33:41.059Z,101362.63
2023-04-15T22:36:08.276Z,101379.22
2023-04-15T22:38:36.240Z,101377.69
2023-04-15T22:41:03.486Z,101380.41
2023-04-15T22:43:30.645Z,101380.47
2023-04-15T22:45:57.947Z,101379.28
2023-04-15T22:48:25.138Z,101374.88
2023-04-15T22:50:52.795Z,101373.31
2023-04-15T22:53:20.202Z,101381.56
2023-04-15T22:55:48.343Z,101382.25
2023-04-15T22:58:18.393Z,101372.69
2023-04-15T23:00:46.200Z,101380.13
2023-04-15T23:03:13.561Z,101384.91
2023-04-15T23:05:41.440Z,101395.94
2023-04-15T23:08:08.798Z,101396.19
2023-04-15T23:10:36.009Z,101390.16
2023-04-15T23:13:03.172Z,101392.09
2023-04-15T23:15:30.416Z,101407.91
2023-04-15T23:17:57.806Z,101406.84
2023-04-15T23:20:24.991Z,101406.81
2023-04-15T23:22:52.140Z,101414.09
2023-04-15T23:25:22.349Z,101408.97
2023-04-15T23:27:49.645Z,101402.31
2023-04-15T23:30:16.909Z,101409.84
2023-04-15T23:32:44.083Z,101392.50
2023-04-15T23:35:11.377Z,101406.28
2023-04-15T23:37:38.659Z,101395.09
2023-04-15T23:40:06.662Z,101414.09
2023-04-15T23:42:33.885Z,101419.06
2023-04-15T23:45:01.018Z,101421.03
2023-04-15T23:47:28.392Z,101416.06
2023-04-15T23:49:55.582Z,101426.72
2023-04-15T23:52:23.012Z,101418.00
2023-04-15T23:54:50.412Z,101424.75
2023-04-15T23:57:18.824Z,101422.13
2023-04-15T23:59:46.321Z,101431.22
